sensor_id;sensor_type;location;lat;lon;timestamp;pressure;altitude;pressure_sealevel;temperature;humidity
4814;BME280;15375;48.540;9.268;2022-08-11T00:00:09;97749.03;;;19.20;58.93
4814;BME280;15375;48.540;9.268;2022-08-11T00:02:38;97762.56;;;18.99;56.90
4814;BME280;15375;48.540;9.268;2022-08-11T00:05:10;97752.47;;;18.78;59.74
4814;BME280;15375;48.540;9.268;2022-08-11T00:07:50;97759.97;;;18.96;57.77
4814;BME280;15375;48.540;9.268;2022-08-11T00:10:18;97750.53;;;19.30;58.38
4814;BME280;15375;48.540;9.268;2022-08-11T00:12:51;97758.44;;;18.95;56.45
4814;BME280;15375;48.540;9.268;2022-08-11T00:15:17;97753.38;;;18.84;57.96
4814;BME280;15375;48.540;9.268;2022-08-11T00:17:43;97750.88;;;19.23;59.66
4814;BME280;15375;48.540;9.268;2022-08-11T00:20:11;97758.41;;;19.13;60.27
4814;BME280;15375;48.540;9.268;2022-08-11T00:22:40;97755.91;;;19.24;59.15
4814;BME280;15375;48.540;9.268;2022-08-11T00:25:18;97753.63;;;19.41;59.56
4814;BME280;15375;48.540;9.268;2022-08-11T00:27:44;97754.31;;;18.81;58.74
4814;BME280;15375;48.540;9.268;2022-08-11T00:30:12;97752.78;;;18.80;62.51
4814;BME280;15375;48.540;9.268;2022-08-11T00:32:41;97755.06;;;18.64;59.75
4814;BME280;15375;48.540;9.268;2022-08-11T00:35:11;97763.22;;;18.76;60.22
4814;BME280;15375;48.540;9.268;2022-08-11T00:37:37;97748.78;;;18.63;59.75
4814;BME280;15375;48.540;9.268;2022-08-11T00:40:04;97748.00;;;18.72;61.25
4814;BME280;15375;48.540;9.268;2022-08-11T00:45:21;97761.63;;;18.30;59.99
4814;BME280;15375;48.540;9.268;2022-08-11T00:48:04;97745.81;;;18.21;61.88
4814;BME280;15375;48.540;9.268;2022-08-11T00:50:59;97761.50;;;18.42;62.66
4814;BME280;15375;48.540;9.268;2022-08-11T00:53:48;97753.69;;;18.59;61.29
4814;BME280;15375;48.540;9.268;2022-08-11T01:18:52;97761.47;;;18.33;61.87
4814;BME280;15375;48.540;9.268;2022-08-11T01:22:05;97756.38;;;18.23;62.51
4814;BME280;15375;48.540;9.268;2022-08-11T01:32:55;97758.84;;;18.21;63.86
4814;BME280;15375;48.540;9.268;2022-08-11T01:41:28;97730.28;;;17.97;64.06
4814;BME280;15375;48.540;9.268;2022-08-11T01:50:17;97733.59;;;17.73;62.53
4814;BME280;15375;48.540;9.268;2022-08-11T01:53:03;97734.38;;;17.83;63.48
4814;BME280;15375;48.540;9.268;2022-08-11T01:56:04;97734.38;;;17.83;62.03
4814;BME280;15375;48.540;9.268;2022-08-11T01:59:09;97734.00;;;17.63;64.15
4814;BME280;15375;48.540;9.268;2022-08-11T02:01:37;97734.06;;;17.72;64.31
4814;BME280;15375;48.540;9.268;2022-08-11T02:07:26;97721.34;;;17.74;63.34
4814;BME280;15375;48.540;9.268;2022-08-11T02:13:34;97725.78;;;17.72;63.90
4814;BME280;15375;48.540;9.268;2022-08-11T02:19:10;97717.03;;;17.82;63.37
4814;BME280;15375;48.540;9.268;2022-08-11T02:25:20;97731.22;;;17.54;65.63
4814;BME280;15375;48.540;9.268;2022-08-11T02:28:04;97724.16;;;17.53;66.27
4814;BME280;15375;48.540;9.268;2022-08-11T02:30:37;97737.16;;;17.52;65.55
4814;BME280;15375;48.540;9.268;2022-08-11T02:33:15;97726.97;;;17.62;67.45
4814;BME280;15375;48.540;9.268;2022-08-11T02:35:59;97720.16;;;17.94;65.15
4814;BME280;15375;48.540;9.268;2022-08-11T02:39:10;97719.03;;;17.73;63.87
4814;BME280;15375;48.540;9.268;2022-08-11T02:41:46;97716.31;;;17.51;65.22
4814;BME280;15375;48.540;9.268;2022-08-11T02:47:17;97728.56;;;17.19;67.72
4814;BME280;15375;48.540;9.268;2022-08-11T02:50:02;97712.19;;;17.16;68.11
4814;BME280;15375;48.540;9.268;2022-08-11T02:52:42;97725.00;;;17.10;68.84
4814;BME280;15375;48.540;9.268;2022-08-11T02:58:01;97712.38;;;17.21;68.57
4814;BME280;15375;48.540;9.268;2022-08-11T03:00:29;97730.06;;;17.42;69.13
4814;BME280;15375;48.540;9.268;2022-08-11T03:03:28;97728.63;;;17.29;66.88
4814;BME280;15375;48.540;9.268;2022-08-11T03:06:23;97717.19;;;17.39;67.39
4814;BME280;15375;48.540;9.268;2022-08-11T03:11:47;97727.84;;;17.28;66.75
4814;BME280;15375;48.540;9.268;2022-08-11T03:14:50;97705.88;;;17.15;65.87
4814;BME280;15375;48.540;9.268;2022-08-11T03:20:45;97712.31;;;17.12;67.92
4814;BME280;15375;48.540;9.268;2022-08-11T03:26:00;97717.31;;;17.05;70.10
4814;BME280;15375;48.540;9.268;2022-08-11T03:28:48;97717.19;;;16.87;67.32
4814;BME280;15375;48.540;9.268;2022-08-11T03:31:43;97727.72;;;16.79;67.46
4814;BME280;15375;48.540;9.268;2022-08-11T03:34:25;97720.47;;;16.73;67.91
4814;BME280;15375;48.540;9.268;2022-08-11T03:37:05;97718.63;;;16.91;69.37
4814;BME280;15375;48.540;9.268;2022-08-11T03:39:45;97717.25;;;16.74;67.23
4814;BME280;15375;48.540;9.268;2022-08-11T03:42:40;97740.63;;;16.48;69.10
4814;BME280;15375;48.540;9.268;2022-08-11T03:45:27;97724.38;;;16.84;72.10
4814;BME280;15375;48.540;9.268;2022-08-11T03:48:20;97741.69;;;16.85;70.50
4814;BME280;15375;48.540;9.268;2022-08-11T03:59:38;97752.19;;;16.77;69.41
4814;BME280;15375;48.540;9.268;2022-08-11T04:05:25;97750.59;;;16.89;69.15
4814;BME280;15375;48.540;9.268;2022-08-11T04:13:38;97751.16;;;17.05;70.05
4814;BME280;15375;48.540;9.268;2022-08-11T04:16:40;97723.22;;;16.73;67.42
4814;BME280;15375;48.540;9.268;2022-08-11T04:22:17;97738.28;;;16.81;69.80
4814;BME280;15375;48.540;9.268;2022-08-11T04:31:03;97740.28;;;16.80;69.47
4814;BME280;15375;48.540;9.268;2022-08-11T04:39:58;97736.56;;;16.96;69.35
4814;BME280;15375;48.540;9.268;2022-08-11T04:48:42;97729.34;;;17.51;67.76
4814;BME280;15375;48.540;9.268;2022-08-11T04:51:47;97731.00;;;17.17;67.27
4814;BME280;15375;48.540;9.268;2022-08-11T05:15:40;97743.53;;;17.62;67.27
4814;BME280;15375;48.540;9.268;2022-08-11T05:18:28;97733.69;;;17.61;67.91
4814;BME280;15375;48.540;9.268;2022-08-11T05:21:13;97710.50;;;17.98;65.62
4814;BME280;15375;48.540;9.268;2022-08-11T05:24:06;97725.53;;;18.06;64.58
4814;BME280;15375;48.540;9.268;2022-08-11T05:26:52;97725.09;;;18.17;64.67
4814;BME280;15375;48.540;9.268;2022-08-11T05:30:00;97739.41;;;18.79;61.42
4814;BME280;15375;48.540;9.268;2022-08-11T05:32:51;97742.47;;;18.81;60.40
4814;BME280;15375;48.540;9.268;2022-08-11T05:35:44;97734.78;;;19.63;59.33
4814;BME280;15375;48.540;9.268;2022-08-11T05:38:25;97737.78;;;20.54;56.20
4814;BME280;15375;48.540;9.268;2022-08-11T05:41:13;97746.56;;;22.13;52.38
4814;BME280;15375;48.540;9.268;2022-08-11T05:44:02;97757.69;;;23.45;48.84
4814;BME280;15375;48.540;9.268;2022-08-11T05:46:47;97739.56;;;24.99;44.78
4814;BME280;15375;48.540;9.268;2022-08-11T05:49:32;97742.69;;;25.90;43.10
4814;BME280;15375;48.540;9.268;2022-08-11T05:52:21;97745.19;;;26.10;42.07
4814;BME280;15375;48.540;9.268;2022-08-11T05:55:06;97743.13;;;27.31;39.62
4814;BME280;15375;48.540;9.268;2022-08-11T05:58:11;97749.31;;;27.89;39.18
4814;BME280;15375;48.540;9.268;2022-08-11T06:00:41;97751.34;;;29.54;37.18
4814;BME280;15375;48.540;9.268;2022-08-11T06:03:08;97759.28;;;29.00;37.34
4814;BME280;15375;48.540;9.268;2022-08-11T06:05:39;97752.44;;;28.95;37.67
4814;BME280;15375;48.540;9.268;2022-08-11T06:08:09;97749.63;;;29.14;36.96
4814;BME280;15375;48.540;9.268;2022-08-11T06:10:38;97745.06;;;29.80;36.75
4814;BME280;15375;48.540;9.268;2022-08-11T06:13:05;97747.63;;;29.46;36.52
4814;BME280;15375;48.540;9.268;2022-08-11T06:15:33;97764.59;;;29.41;37.16
4814;BME280;15375;48.540;9.268;2022-08-11T06:18:00;97732.28;;;29.79;36.25
4814;BME280;15375;48.540;9.268;2022-08-11T06:20:29;97734.19;;;30.68;35.01
4814;BME280;15375;48.540;9.268;2022-08-11T06:23:05;97743.72;;;30.91;34.45
4814;BME280;15375;48.540;9.268;2022-08-11T06:25:32;97731.97;;;30.41;34.64
4814;BME280;15375;48.540;9.268;2022-08-11T06:28:01;97747.19;;;29.42;36.64
4814;BME280;15375;48.540;9.268;2022-08-11T06:30:37;97761.06;;;29.22;37.76
4814;BME280;15375;48.540;9.268;2022-08-11T06:33:19;97747.63;;;30.75;34.96
4814;BME280;15375;48.540;9.268;2022-08-11T06:35:56;97759.84;;;30.12;36.04
4814;BME280;15375;48.540;9.268;2022-08-11T06:41:23;97751.66;;;30.41;36.16
4814;BME280;15375;48.540;9.268;2022-08-11T06:46:39;97735.56;;;30.88;35.49
4814;BME280;15375;48.540;9.268;2022-08-11T06:49:07;97752.94;;;30.79;35.90
4814;BME280;15375;48.540;9.268;2022-08-11T06:51:54;97735.91;;;32.42;33.70
4814;BME280;15375;48.540;9.268;2022-08-11T06:54:22;97737.06;;;32.18;33.62
4814;BME280;15375;48.540;9.268;2022-08-11T06:56:48;97727.47;;;32.50;33.25
4814;BME280;15375;48.540;9.268;2022-08-11T06:59:33;97748.88;;;30.87;34.97
4814;BME280;15375;48.540;9.268;2022-08-11T07:02:23;97742.25;;;31.32;34.71
4814;BME280;15375;48.540;9.268;2022-08-11T07:04:58;97753.25;;;29.46;37.64
4814;BME280;15375;48.540;9.268;2022-08-11T07:10:49;97744.63;;;26.28;43.23
4814;BME280;15375;48.540;9.268;2022-08-11T07:13:39;97725.84;;;26.23;43.58
4814;BME280;15375;48.540;9.268;2022-08-11T07:16:27;97748.75;;;25.99;43.77
4814;BME280;15375;48.540;9.268;2022-08-11T07:19:01;97745.44;;;25.95;44.81
4814;BME280;15375;48.540;9.268;2022-08-11T07:21:46;97735.34;;;25.59;45.32
4814;BME280;15375;48.540;9.268;2022-08-11T07:24:36;97735.59;;;25.50;45.56
4814;BME280;15375;48.540;9.268;2022-08-11T07:27:24;97714.50;;;25.71;45.12
4814;BME280;15375;48.540;9.268;2022-08-11T07:30:11;97728.47;;;25.49;46.32
4814;BME280;15375;48.540;9.268;2022-08-11T07:32:46;97726.16;;;25.92;45.43
4814;BME280;15375;48.540;9.268;2022-08-11T07:35:20;97723.84;;;25.02;46.69
4814;BME280;15375;48.540;9.268;2022-08-11T07:37:49;97715.22;;;25.88;44.91
4814;BME280;15375;48.540;9.268;2022-08-11T07:40:22;97712.06;;;26.31;44.46
4814;BME280;15375;48.540;9.268;2022-08-11T07:42:49;97702.53;;;26.67;43.22
4814;BME280;15375;48.540;9.268;2022-08-11T07:45:15;97712.56;;;26.40;43.79
4814;BME280;15375;48.540;9.268;2022-08-11T07:48:00;97699.25;;;25.78;44.61
4814;BME280;15375;48.540;9.268;2022-08-11T07:50:45;97706.38;;;25.46;45.25
4814;BME280;15375;48.540;9.268;2022-08-11T07:53:30;97708.66;;;25.69;45.24
4814;BME280;15375;48.540;9.268;2022-08-11T07:55:59;97715.19;;;26.05;44.81
4814;BME280;15375;48.540;9.268;2022-08-11T07:58:26;97703.00;;;26.03;44.63
4814;BME280;15375;48.540;9.268;2022-08-11T08:01:25;97707.22;;;26.42;44.73
4814;BME280;15375;48.540;9.268;2022-08-11T08:04:12;97693.72;;;26.46;42.78
4814;BME280;15375;48.540;9.268;2022-08-11T08:06:58;97705.09;;;26.65;42.56
4814;BME280;15375;48.540;9.268;2022-08-11T08:09:44;97695.31;;;26.31;43.28
4814;BME280;15375;48.540;9.268;2022-08-11T08:12:29;97685.31;;;26.46;42.87
4814;BME280;15375;48.540;9.268;2022-08-11T08:15:14;97699.25;;;26.63;42.51
4814;BME280;15375;48.540;9.268;2022-08-11T08:18:02;97685.72;;;26.67;41.76
4814;BME280;15375;48.540;9.268;2022-08-11T08:20:50;97701.25;;;26.68;41.37
4814;BME280;15375;48.540;9.268;2022-08-11T08:23:17;97690.59;;;26.61;42.77
4814;BME280;15375;48.540;9.268;2022-08-11T08:25:57;97692.78;;;27.20;41.47
4814;BME280;15375;48.540;9.268;2022-08-11T08:28:26;97676.19;;;26.92;40.60
4814;BME280;15375;48.540;9.268;2022-08-11T08:30:52;97683.53;;;27.66;39.72
4814;BME280;15375;48.540;9.268;2022-08-11T08:33:30;97682.03;;;28.13;39.91
4814;BME280;15375;48.540;9.268;2022-08-11T08:35:57;97688.00;;;27.50;37.56
4814;BME280;15375;48.540;9.268;2022-08-11T08:41:12;97692.94;;;27.93;37.69
4814;BME280;15375;48.540;9.268;2022-08-11T08:43:39;97683.84;;;28.11;36.73
4814;BME280;15375;48.540;9.268;2022-08-11T08:46:08;97683.50;;;28.38;36.56
4814;BME280;15375;48.540;9.268;2022-08-11T08:48:35;97687.88;;;28.15;35.98
4814;BME280;15375;48.540;9.268;2022-08-11T08:51:04;97680.13;;;27.73;36.53
4814;BME280;15375;48.540;9.268;2022-08-11T08:53:53;97676.38;;;27.65;36.11
4814;BME280;15375;48.540;9.268;2022-08-11T08:56:25;97697.97;;;27.46;36.92
4814;BME280;15375;48.540;9.268;2022-08-11T08:58:52;97689.41;;;27.27;37.22
4814;BME280;15375;48.540;9.268;2022-08-11T09:01:18;97695.06;;;27.57;36.28
4814;BME280;15375;48.540;9.268;2022-08-11T09:03:47;97693.50;;;27.61;36.42
4814;BME280;15375;48.540;9.268;2022-08-11T09:06:14;97685.31;;;26.98;37.63
4814;BME280;15375;48.540;9.268;2022-08-11T09:08:43;97705.56;;;27.51;37.63
4814;BME280;15375;48.540;9.268;2022-08-11T09:11:09;97705.53;;;27.21;37.18
4814;BME280;15375;48.540;9.268;2022-08-11T09:13:54;97698.31;;;28.58;36.09
4814;BME280;15375;48.540;9.268;2022-08-11T09:16:21;97693.63;;;28.23;36.10
4814;BME280;15375;48.540;9.268;2022-08-11T09:18:47;97698.47;;;28.22;36.34
4814;BME280;15375;48.540;9.268;2022-08-11T09:21:14;97707.72;;;28.60;35.80
4814;BME280;15375;48.540;9.268;2022-08-11T09:23:41;97709.44;;;28.69;32.81
4814;BME280;15375;48.540;9.268;2022-08-11T09:26:27;97701.88;;;28.39;32.75
4814;BME280;15375;48.540;9.268;2022-08-11T09:29:31;97683.00;;;28.16;33.40
4814;BME280;15375;48.540;9.268;2022-08-11T09:31:58;97692.31;;;28.29;33.23
4814;BME280;15375;48.540;9.268;2022-08-11T09:34:25;97689.66;;;29.12;33.09
4814;BME280;15375;48.540;9.268;2022-08-11T09:36:52;97695.34;;;28.31;33.79
4814;BME280;15375;48.540;9.268;2022-08-11T09:39:37;97692.97;;;28.35;34.30
4814;BME280;15375;48.540;9.268;2022-08-11T09:42:23;97695.69;;;28.84;33.99
4814;BME280;15375;48.540;9.268;2022-08-11T09:45:11;97696.13;;;29.06;33.81
4814;BME280;15375;48.540;9.268;2022-08-11T09:47:37;97691.91;;;28.81;33.03
4814;BME280;15375;48.540;9.268;2022-08-11T09:50:05;97696.25;;;29.14;33.22
4814;BME280;15375;48.540;9.268;2022-08-11T09:52:36;97708.16;;;29.70;32.72
4814;BME280;15375;48.540;9.268;2022-08-11T09:55:02;97701.25;;;29.40;32.88
4814;BME280;15375;48.540;9.268;2022-08-11T09:57:37;97705.03;;;28.92;31.76
4814;BME280;15375;48.540;9.268;2022-08-11T10:00:28;97677.72;;;28.74;32.67
4814;BME280;15375;48.540;9.268;2022-08-11T10:02:55;97686.34;;;28.94;32.49
4814;BME280;15375;48.540;9.268;2022-08-11T10:05:21;97692.78;;;28.52;32.43
4814;BME280;15375;48.540;9.268;2022-08-11T10:08:08;97694.78;;;29.45;31.67
4814;BME280;15375;48.540;9.268;2022-08-11T10:10:37;97692.41;;;29.49;31.37
4814;BME280;15375;48.540;9.268;2022-08-11T10:13:09;97690.22;;;29.10;31.78
4814;BME280;15375;48.540;9.268;2022-08-11T10:15:35;97683.00;;;28.59;31.82
4814;BME280;15375;48.540;9.268;2022-08-11T10:18:13;97700.19;;;28.92;32.24
4814;BME280;15375;48.540;9.268;2022-08-11T10:21:04;97684.78;;;29.62;31.15
4814;BME280;15375;48.540;9.268;2022-08-11T10:23:32;97692.47;;;29.30;31.11
4814;BME280;15375;48.540;9.268;2022-08-11T10:26:19;97676.22;;;29.23;31.71
4814;BME280;15375;48.540;9.268;2022-08-11T10:29:04;97682.44;;;29.16;30.95
4814;BME280;15375;48.540;9.268;2022-08-11T10:31:52;97682.91;;;29.52;29.73
4814;BME280;15375;48.540;9.268;2022-08-11T10:34:38;97681.09;;;29.23;30.53
4814;BME280;15375;48.540;9.268;2022-08-11T10:37:05;97671.25;;;29.48;31.43
4814;BME280;15375;48.540;9.268;2022-08-11T10:39:30;97651.47;;;29.03;30.76
4814;BME280;15375;48.540;9.268;2022-08-11T10:41:56;97661.97;;;29.21;31.70
4814;BME280;15375;48.540;9.268;2022-08-11T10:44:43;97667.22;;;29.88;30.73
4814;BME280;15375;48.540;9.268;2022-08-11T10:47:11;97670.97;;;30.04;30.88
4814;BME280;15375;48.540;9.268;2022-08-11T10:49:57;97653.38;;;29.90;31.16
4814;BME280;15375;48.540;9.268;2022-08-11T10:52:42;97673.56;;;29.76;30.45
4814;BME280;15375;48.540;9.268;2022-08-11T10:55:28;97659.09;;;29.98;30.39
4814;BME280;15375;48.540;9.268;2022-08-11T10:58:12;97654.56;;;29.95;30.38
4814;BME280;15375;48.540;9.268;2022-08-11T11:01:01;97646.75;;;30.14;31.61
4814;BME280;15375;48.540;9.268;2022-08-11T11:03:29;97643.94;;;30.40;29.56
4814;BME280;15375;48.540;9.268;2022-08-11T11:06:02;97634.06;;;29.55;29.89
4814;BME280;15375;48.540;9.268;2022-08-11T11:08:29;97621.25;;;29.41;29.28
4814;BME280;15375;48.540;9.268;2022-08-11T11:11:15;97636.41;;;29.51;30.13
4814;BME280;15375;48.540;9.268;2022-08-11T11:13:45;97627.69;;;28.91;30.88
4814;BME280;15375;48.540;9.268;2022-08-11T11:16:30;97636.47;;;29.00;30.77
4814;BME280;15375;48.540;9.268;2022-08-11T11:19:15;97644.94;;;29.14;30.30
4814;BME280;15375;48.540;9.268;2022-08-11T11:21:47;97647.91;;;29.21;30.64
4814;BME280;15375;48.540;9.268;2022-08-11T11:24:39;97633.50;;;28.93;30.96
4814;BME280;15375;48.540;9.268;2022-08-11T11:27:16;97626.75;;;29.33;29.60
4814;BME280;15375;48.540;9.268;2022-08-11T11:30:06;97644.03;;;29.05;30.47
4814;BME280;15375;48.540;9.268;2022-08-11T11:33:01;97629.31;;;29.76;30.93
4814;BME280;15375;48.540;9.268;2022-08-11T11:38:23;97615.09;;;29.29;30.76
4814;BME280;15375;48.540;9.268;2022-08-11T11:40:49;97619.22;;;29.41;30.49
4814;BME280;15375;48.540;9.268;2022-08-11T11:43:35;97608.72;;;29.42;30.49
4814;BME280;15375;48.540;9.268;2022-08-11T11:46:03;97614.25;;;29.47;30.65
4814;BME280;15375;48.540;9.268;2022-08-11T11:48:30;97600.25;;;29.87;30.46
4814;BME280;15375;48.540;9.268;2022-08-11T11:50:56;97599.91;;;29.77;29.91
4814;BME280;15375;48.540;9.268;2022-08-11T11:53:23;97603.34;;;29.57;29.46
4814;BME280;15375;48.540;9.268;2022-08-11T11:55:49;97607.81;;;29.79;29.85
4814;BME280;15375;48.540;9.268;2022-08-11T11:58:14;97604.69;;;29.82;30.32
4814;BME280;15375;48.540;9.268;2022-08-11T12:01:00;97602.84;;;30.11;29.94
4814;BME280;15375;48.540;9.268;2022-08-11T12:03:42;97586.06;;;29.92;29.54
4814;BME280;15375;48.540;9.268;2022-08-11T12:06:10;97592.63;;;29.42;30.55
4814;BME280;15375;48.540;9.268;2022-08-11T12:08:40;97598.38;;;29.18;30.46
4814;BME280;15375;48.540;9.268;2022-08-11T12:11:09;97593.28;;;29.35;30.06
4814;BME280;15375;48.540;9.268;2022-08-11T12:13:55;97589.81;;;29.29;30.37
4814;BME280;15375;48.540;9.268;2022-08-11T12:16:22;97588.72;;;29.32;30.18
4814;BME280;15375;48.540;9.268;2022-08-11T12:18:50;97594.16;;;29.56;29.90
4814;BME280;15375;48.540;9.268;2022-08-11T12:21:16;97591.78;;;29.47;30.02
4814;BME280;15375;48.540;9.268;2022-08-11T12:23:44;97583.78;;;29.51;29.64
4814;BME280;15375;48.540;9.268;2022-08-11T12:26:29;97584.34;;;29.89;29.82
4814;BME280;15375;48.540;9.268;2022-08-11T12:29:16;97580.66;;;29.68;29.98
4814;BME280;15375;48.540;9.268;2022-08-11T12:31:42;97586.91;;;29.48;29.64
4814;BME280;15375;48.540;9.268;2022-08-11T12:34:11;97573.59;;;29.48;30.25
4814;BME280;15375;48.540;9.268;2022-08-11T12:36:59;97578.25;;;29.59;30.20
4814;BME280;15375;48.540;9.268;2022-08-11T12:39:26;97583.69;;;29.96;29.50
4814;BME280;15375;48.540;9.268;2022-08-11T12:42:15;97570.16;;;30.08;28.92
4814;BME280;15375;48.540;9.268;2022-08-11T12:45:02;97561.84;;;29.89;29.64
4814;BME280;15375;48.540;9.268;2022-08-11T12:47:49;97577.06;;;29.41;29.98
4814;BME280;15375;48.540;9.268;2022-08-11T12:50:34;97563.88;;;29.49;29.93
4814;BME280;15375;48.540;9.268;2022-08-11T12:53:32;97541.50;;;29.44;29.78
4814;BME280;15375;48.540;9.268;2022-08-11T12:56:04;97568.41;;;29.39;29.82
4814;BME280;15375;48.540;9.268;2022-08-11T12:58:50;97542.38;;;29.52;29.11
4814;BME280;15375;48.540;9.268;2022-08-11T13:01:16;97567.00;;;29.33;29.61
4814;BME280;15375;48.540;9.268;2022-08-11T13:04:01;97547.91;;;29.70;29.25
4814;BME280;15375;48.540;9.268;2022-08-11T13:06:45;97546.16;;;29.67;29.65
4814;BME280;15375;48.540;9.268;2022-08-11T13:09:11;97554.50;;;29.73;30.09
4814;BME280;15375;48.540;9.268;2022-08-11T13:11:38;97533.28;;;29.59;29.71
4814;BME280;15375;48.540;9.268;2022-08-11T13:14:25;97552.75;;;29.44;29.87
4814;BME280;15375;48.540;9.268;2022-08-11T13:16:50;97535.47;;;29.53;30.16
4814;BME280;15375;48.540;9.268;2022-08-11T13:19:35;97542.69;;;29.75;29.72
4814;BME280;15375;48.540;9.268;2022-08-11T13:22:02;97524.34;;;29.60;29.58
4814;BME280;15375;48.540;9.268;2022-08-11T13:24:30;97555.47;;;29.62;29.13
4814;BME280;15375;48.540;9.268;2022-08-11T13:26:58;97542.06;;;29.42;29.52
4814;BME280;15375;48.540;9.268;2022-08-11T13:29:26;97540.66;;;29.62;29.16
4814;BME280;15375;48.540;9.268;2022-08-11T13:31:55;97536.84;;;29.73;29.15
4814;BME280;15375;48.540;9.268;2022-08-11T13:34:23;97518.06;;;29.67;28.84
4814;BME280;15375;48.540;9.268;2022-08-11T13:36:53;97541.84;;;29.80;29.35
4814;BME280;15375;48.540;9.268;2022-08-11T13:39:21;97526.91;;;29.58;29.14
4814;BME280;15375;48.540;9.268;2022-08-11T13:41:48;97525.09;;;29.48;29.06
4814;BME280;15375;48.540;9.268;2022-08-11T13:44:15;97527.00;;;29.66;29.23
4814;BME280;15375;48.540;9.268;2022-08-11T13:46:41;97516.31;;;29.64;29.17
4814;BME280;15375;48.540;9.268;2022-08-11T13:49:08;97526.50;;;29.81;28.85
4814;BME280;15375;48.540;9.268;2022-08-11T13:51:36;97522.16;;;29.80;29.44
4814;BME280;15375;48.540;9.268;2022-08-11T13:54:15;97532.81;;;30.07;29.03
4814;BME280;15375;48.540;9.268;2022-08-11T13:56:47;97524.66;;;29.83;29.37
4814;BME280;15375;48.540;9.268;2022-08-11T13:59:14;97511.56;;;29.73;29.72
4814;BME280;15375;48.540;9.268;2022-08-11T14:01:48;97507.66;;;29.62;30.20
4814;BME280;15375;48.540;9.268;2022-08-11T14:04:16;97503.78;;;29.79;29.73
4814;BME280;15375;48.540;9.268;2022-08-11T14:06:51;97496.19;;;29.87;29.81
4814;BME280;15375;48.540;9.268;2022-08-11T14:09:22;97511.66;;;29.67;30.08
4814;BME280;15375;48.540;9.268;2022-08-11T14:11:52;97499.44;;;29.38;30.78
4814;BME280;15375;48.540;9.268;2022-08-11T14:14:48;97497.50;;;29.46;30.90
4814;BME280;15375;48.540;9.268;2022-08-11T14:17:17;97496.72;;;29.72;30.62
4814;BME280;15375;48.540;9.268;2022-08-11T14:19:46;97500.19;;;29.91;29.78
4814;BME280;15375;48.540;9.268;2022-08-11T14:22:15;97490.91;;;29.83;30.17
4814;BME280;15375;48.540;9.268;2022-08-11T14:24:43;97482.13;;;29.87;29.84
4814;BME280;15375;48.540;9.268;2022-08-11T14:27:14;97498.03;;;29.71;30.19
4814;BME280;15375;48.540;9.268;2022-08-11T14:29:40;97488.22;;;29.25;30.52
4814;BME280;15375;48.540;9.268;2022-08-11T14:32:09;97492.34;;;29.37;30.55
4814;BME280;15375;48.540;9.268;2022-08-11T14:34:38;97482.84;;;29.40;29.55
4814;BME280;15375;48.540;9.268;2022-08-11T14:37:07;97482.59;;;29.64;29.53
4814;BME280;15375;48.540;9.268;2022-08-11T14:39:40;97484.94;;;29.87;29.64
4814;BME280;15375;48.540;9.268;2022-08-11T14:42:08;97475.19;;;30.01;29.20
4814;BME280;15375;48.540;9.268;2022-08-11T14:44:58;97462.13;;;29.90;30.54
4814;BME280;15375;48.540;9.268;2022-08-11T14:47:30;97478.25;;;29.90;29.74
4814;BME280;15375;48.540;9.268;2022-08-11T14:49:58;97474.16;;;29.64;30.54
4814;BME280;15375;48.540;9.268;2022-08-11T14:52:25;97473.69;;;29.73;30.23
4814;BME280;15375;48.540;9.268;2022-08-11T14:54:52;97465.81;;;29.59;29.96
4814;BME280;15375;48.540;9.268;2022-08-11T14:57:39;97475.78;;;29.60;30.21
4814;BME280;15375;48.540;9.268;2022-08-11T15:00:07;97466.56;;;29.73;29.64
4814;BME280;15375;48.540;9.268;2022-08-11T15:02:36;97468.63;;;29.72;29.43
4814;BME280;15375;48.540;9.268;2022-08-11T15:05:22;97470.69;;;29.58;29.70
4814;BME280;15375;48.540;9.268;2022-08-11T15:07:49;97468.31;;;29.62;29.38
4814;BME280;15375;48.540;9.268;2022-08-11T15:10:17;97464.84;;;29.56;29.73
4814;BME280;15375;48.540;9.268;2022-08-11T15:12:44;97467.03;;;29.50;29.29
4814;BME280;15375;48.540;9.268;2022-08-11T15:15:10;97459.34;;;29.51;29.83
4814;BME280;15375;48.540;9.268;2022-08-11T15:17:57;97448.66;;;29.36;29.52
4814;BME280;15375;48.540;9.268;2022-08-11T15:20:25;97448.66;;;29.23;29.67
4814;BME280;15375;48.540;9.268;2022-08-11T15:23:10;97442.41;;;29.30;28.97
4814;BME280;15375;48.540;9.268;2022-08-11T15:25:58;97453.09;;;29.45;29.03
4814;BME280;15375;48.540;9.268;2022-08-11T15:28:29;97457.09;;;29.49;29.23
4814;BME280;15375;48.540;9.268;2022-08-11T15:31:15;97442.59;;;29.19;28.98
4814;BME280;15375;48.540;9.268;2022-08-11T15:34:05;97456.94;;;29.16;29.61
4814;BME280;15375;48.540;9.268;2022-08-11T15:36:54;97454.94;;;29.29;28.86
4814;BME280;15375;48.540;9.268;2022-08-11T15:39:47;97446.06;;;29.38;29.11
4814;BME280;15375;48.540;9.268;2022-08-11T15:42:49;97438.19;;;29.37;28.96
4814;BME280;15375;48.540;9.268;2022-08-11T15:45:36;97450.41;;;29.26;29.52
4814;BME280;15375;48.540;9.268;2022-08-11T15:48:17;97432.88;;;29.33;29.02
4814;BME280;15375;48.540;9.268;2022-08-11T15:50:49;97440.03;;;29.34;28.70
4814;BME280;15375;48.540;9.268;2022-08-11T15:53:46;97438.28;;;29.44;29.03
4814;BME280;15375;48.540;9.268;2022-08-11T15:56:14;97427.91;;;29.52;29.03
4814;BME280;15375;48.540;9.268;2022-08-11T15:58:52;97420.13;;;29.45;28.83
4814;BME280;15375;48.540;9.268;2022-08-11T16:01:39;97428.38;;;29.30;29.01
4814;BME280;15375;48.540;9.268;2022-08-11T16:04:26;97429.84;;;29.05;28.87
4814;BME280;15375;48.540;9.268;2022-08-11T16:07:06;97431.34;;;28.93;29.36
4814;BME280;15375;48.540;9.268;2022-08-11T16:10:02;97432.22;;;29.14;29.23
4814;BME280;15375;48.540;9.268;2022-08-11T16:12:35;97431.06;;;29.23;29.26
4814;BME280;15375;48.540;9.268;2022-08-11T16:15:04;97416.25;;;29.22;28.96
4814;BME280;15375;48.540;9.268;2022-08-11T16:18:00;97427.03;;;28.92;28.73
4814;BME280;15375;48.540;9.268;2022-08-11T16:20:28;97426.50;;;29.06;28.38
4814;BME280;15375;48.540;9.268;2022-08-11T16:23:02;97417.53;;;29.08;28.71
4814;BME280;15375;48.540;9.268;2022-08-11T16:25:28;97422.06;;;29.11;28.34
4814;BME280;15375;48.540;9.268;2022-08-11T16:27:56;97425.75;;;29.19;28.55
4814;BME280;15375;48.540;9.268;2022-08-11T16:30:41;97423.38;;;29.23;28.76